Terminal Aerodrome Forecast
Issued by NWS Honolulu, HI

Home | Current Version | Previous Version | Text Only | Print | Product List | Glossary On
Versions: 1 2 3 4 5 6 7 8 9 10 11 12 13 14 15 16 17 18 19 20 21 22
000
FTPA31 PHFO 291727
TAFHNL
TAF
PHNL 291727Z 2918/3024 06008KT P6SM FEW030 SCT050 BKN080
     FM292000 08012G20KT P6SM FEW030 SCT050
     FM300600 07008KT P6SM SCT030 SCT050
     FM302000 06012G20KT P6SM SCT030 SCT050=

USA.gov is the U.S. government's official web portal to all federal, state and local government web resources and services.